Time;durP1;ratioP1;P1;durP2;ratioP2;P2;SDS_P1;SDS_P2;PMS_P1;PMS_P2;Temp;Humidity;BMP_temperature;BMP_pressure;BME280_temperature;BME280_humidity;BME280_pressure;Samples;Min_cycle;Max_cycle;Signal;HPM_P1;HPM_P2
2021/05/24 00:01:30;;;;;;;2.03;0.63;;;14.20;99.90;;;;;;5094809;28;20226;-84
2021/05/24 00:03:57;;;;;;;1.20;0.70;;;14.20;99.90;;;;;;5099668;28;20245;-85
2021/05/24 00:06:25;;;;;;;2.17;0.60;;;14.20;99.90;;;;;;5078670;28;20206;-83
2021/05/24 00:08:51;;;;;;;2.43;0.60;;;14.20;99.90;;;;;;5096797;28;20199;-84
2021/05/24 00:11:18;;;;;;;2.23;0.60;;;14.30;99.90;;;;;;5095843;28;20206;-83
2021/05/24 00:13:56;;;;;;;4.03;0.93;;;14.40;99.90;;;;;;5095766;28;20341;-84
2021/05/24 00:16:24;;;;;;;2.27;0.60;;;14.50;99.90;;;;;;5096753;28;20226;-84
2021/05/24 00:18:54;;;;;;;1.80;1.13;;;14.50;99.90;;;;;;5095628;28;20210;-85
2021/05/24 00:21:21;;;;;;;4.70;0.67;;;14.40;99.90;;;;;;5095933;28;20317;-83
2021/05/24 00:23:49;;;;;;;3.77;1.10;;;14.40;99.90;;;;;;5095217;28;20198;-85
2021/05/24 00:26:16;;;;;;;3.07;0.70;;;14.40;99.90;;;;;;5094894;28;20653;-84
2021/05/24 00:28:42;;;;;;;2.77;0.70;;;14.40;99.90;;;;;;5095097;28;20209;-84
2021/05/24 00:31:09;;;;;;;3.27;0.70;;;14.40;99.90;;;;;;5094844;28;20291;-83
2021/05/24 00:33:36;;;;;;;3.37;0.70;;;14.40;99.90;;;;;;5094960;28;20218;-84
2021/05/24 00:36:03;;;;;;;3.27;0.60;;;14.40;99.90;;;;;;5093994;28;20226;-83
2021/05/24 00:38:32;;;;;;;3.77;0.80;;;14.40;99.90;;;;;;5093971;28;20314;-85
2021/05/24 00:41:00;;;;;;;2.33;0.63;;;14.50;99.90;;;;;;5094065;28;20575;-84
2021/05/24 00:43:29;;;;;;;2.03;0.50;;;14.40;99.90;;;;;;5093017;28;20548;-85
2021/05/24 00:45:56;;;;;;;2.23;0.83;;;14.40;99.90;;;;;;5093967;28;20282;-84
2021/05/24 00:48:22;;;;;;;1.37;0.50;;;14.40;99.90;;;;;;5093252;28;20575;-83
2021/05/24 00:50:49;;;;;;;3.83;0.70;;;14.30;99.90;;;;;;5093114;28;20222;-87
2021/05/24 00:53:16;;;;;;;3.57;0.80;;;14.30;99.90;;;;;;5092960;28;20512;-84
2021/05/24 00:55:43;;;;;;;1.37;0.70;;;14.40;99.90;;;;;;5093153;28;20265;-84
2021/05/24 00:58:10;;;;;;;2.13;0.80;;;14.30;99.90;;;;;;5093143;28;20201;-83
2021/05/24 01:00:39;;;;;;;2.07;0.60;;;14.30;99.90;;;;;;5093326;28;20226;-84
2021/05/24 01:03:06;;;;;;;2.17;0.80;;;14.30;99.90;;;;;;5093107;28;20222;-83
2021/05/24 01:05:43;;;;;;;1.80;0.50;;;14.20;99.90;;;;;;5092941;28;20252;-84
2021/05/24 01:08:11;;;;;;;2.13;0.70;;;14.30;99.90;;;;;;5093041;28;20583;-84
2021/05/24 01:10:38;;;;;;;1.60;0.50;;;14.40;99.90;;;;;;5093346;28;20289;-85
2021/05/24 01:13:07;;;;;;;1.00;0.30;;;14.40;99.90;;;;;;5093109;28;20279;-84
2021/05/24 01:15:35;;;;;;;2.80;0.97;;;14.30;99.90;;;;;;5093033;28;20223;-85
2021/05/24 01:18:06;;;;;;;4.73;0.77;;;14.30;99.90;;;;;;5092791;28;20206;-85
2021/05/24 01:20:33;;;;;;;2.63;0.60;;;14.40;99.90;;;;;;5093086;28;20570;-85
2021/05/24 01:23:10;;;;;;;1.57;0.47;;;14.30;99.90;;;;;;5093286;28;20205;-85
2021/05/24 01:25:40;;;;;;;3.67;0.60;;;14.40;99.90;;;;;;5093410;28;20206;-85
2021/05/24 01:28:10;;;;;;;1.50;0.50;;;14.30;99.90;;;;;;5092835;28;20664;-85
2021/05/24 01:30:40;;;;;;;2.50;0.60;;;14.40;99.90;;;;;;5092718;28;20203;-83
2021/05/24 01:33:08;;;;;;;2.27;0.50;;;14.40;99.90;;;;;;5093388;28;20203;-85
2021/05/24 01:35:35;;;;;;;2.07;0.57;;;14.30;99.90;;;;;;5092732;28;20230;-87
2021/05/24 01:38:04;;;;;;;1.93;0.43;;;14.30;99.90;;;;;;5092926;28;20203;-85
2021/05/24 01:40:30;;;;;;;2.33;0.50;;;14.30;99.90;;;;;;5092389;28;20206;-83
2021/05/24 01:42:59;;;;;;;6.50;0.70;;;14.30;99.90;;;;;;5092711;28;20244;-83
2021/05/24 01:45:26;;;;;;;5.63;0.70;;;14.30;99.90;;;;;;5092987;28;20210;-84
2021/05/24 01:47:54;;;;;;;3.07;0.80;;;14.30;99.90;;;;;;5092627;28;20595;-85
2021/05/24 01:50:22;;;;;;;3.73;0.80;;;14.20;99.90;;;;;;5092736;28;20622;-83
2021/05/24 01:52:49;;;;;;;2.50;1.30;;;14.30;99.90;;;;;;5092868;28;20660;-86
2021/05/24 01:55:23;;;;;;;4.97;2.00;;;14.30;99.90;;;;;;5096159;28;20653;-86
2021/05/24 01:57:50;;;;;;;5.17;1.80;;;14.30;99.90;;;;;;5096430;28;20656;-83
2021/05/24 02:00:21;;;;;;;6.00;1.67;;;14.20;99.90;;;;;;5096235;28;20191;-82
2021/05/24 02:02:48;;;;;;;3.27;1.60;;;14.30;99.90;;;;;;5096443;28;20203;-86
2021/05/24 02:05:24;;;;;;;3.90;1.50;;;14.40;99.90;;;;;;5096244;28;20683;-86
2021/05/24 02:07:52;;;;;;;3.03;1.10;;;14.50;99.90;;;;;;5096224;28;20202;-84
2021/05/24 02:10:22;;;;;;;4.77;0.60;;;14.40;99.90;;;;;;5095723;28;20198;-86
2021/05/24 02:12:49;;;;;;;4.60;0.77;;;14.50;99.90;;;;;;5096506;28;20670;-83
2021/05/24 02:15:22;;;;;;;5.40;0.70;;;14.40;99.90;;;;;;5095834;28;20209;-83
2021/05/24 02:17:58;;;;;;;3.43;0.60;;;14.40;99.90;;;;;;5095722;28;20199;-84
2021/05/24 02:20:27;;;;;;;1.67;0.50;;;14.30;99.90;;;;;;5095645;28;20210;-84
2021/05/24 02:22:58;;;;;;;4.93;0.63;;;14.40;99.90;;;;;;5095794;28;20653;-86
2021/05/24 02:25:31;;;;;;;5.03;0.93;;;14.40;99.90;;;;;;5095841;28;20230;-87
2021/05/24 02:27:58;;;;;;;1.27;0.53;;;14.40;99.90;;;;;;5096218;28;20286;-84
2021/05/24 02:30:26;;;;;;;5.03;0.70;;;14.40;99.90;;;;;;5095481;28;20252;-84
2021/05/24 02:33:04;;;;;;;1.50;0.63;;;14.40;99.90;;;;;;5095314;28;20226;-86
2021/05/24 02:35:31;;;;;;;1.47;0.53;;;14.40;99.90;;;;;;5095611;28;20226;-86
2021/05/24 02:38:01;;;;;;;2.83;0.93;;;14.40;99.90;;;;;;5095570;28;20229;-84
2021/05/24 02:40:28;;;;;;;3.33;0.70;;;14.40;99.90;;;;;;5095931;28;20214;-85
2021/05/24 02:42:55;;;;;;;5.27;0.70;;;14.30;99.90;;;;;;5095721;28;20226;-84
2021/05/24 02:45:22;;;;;;;4.40;0.57;;;14.40;99.90;;;;;;5095352;28;20570;-84
2021/05/24 02:47:50;;;;;;;2.17;0.70;;;14.40;99.90;;;;;;5095638;28;20207;-85
2021/05/24 02:50:19;;;;;;;3.77;0.70;;;14.40;99.90;;;;;;5095440;28;20278;-83
2021/05/24 02:52:45;;;;;;;3.67;0.70;;;14.30;99.90;;;;;;5095246;28;20211;-83
2021/05/24 02:55:12;;;;;;;1.30;0.47;;;14.30;99.90;;;;;;5095055;28;20211;-84
2021/05/24 02:57:40;;;;;;;5.43;1.30;;;14.20;99.90;;;;;;5095162;28;20204;-85
2021/05/24 03:00:08;;;;;;;3.53;0.70;;;14.20;99.90;;;;;;5094791;28;20191;-84
2021/05/24 03:02:44;;;;;;;2.23;0.50;;;14.20;99.90;;;;;;5095278;28;20298;-84
2021/05/24 03:05:11;;;;;;;2.00;0.70;;;14.20;99.90;;;;;;5094209;28;20198;-84
2021/05/24 03:07:38;;;;;;;4.73;0.60;;;14.30;99.90;;;;;;5095033;28;20231;-87
2021/05/24 03:10:05;;;;;;;3.87;0.60;;;14.30;99.90;;;;;;5094913;28;20669;-84
2021/05/24 03:12:32;;;;;;;3.00;0.70;;;14.20;99.90;;;;;;5094538;28;20199;-84
2021/05/24 03:14:59;;;;;;;4.10;0.80;;;14.20;99.90;;;;;;5094960;28;20228;-85
2021/05/24 03:17:26;;;;;;;1.77;0.60;;;14.00;99.90;;;;;;5094967;28;20229;-85
2021/05/24 03:19:52;;;;;;;3.90;0.60;;;13.90;99.90;;;;;;5095271;28;20210;-84
2021/05/24 03:22:19;;;;;;;2.60;0.70;;;13.90;99.90;;;;;;5094586;28;20230;-84
2021/05/24 03:24:48;;;;;;;3.80;0.73;;;13.90;99.90;;;;;;5094803;28;20258;-85
2021/05/24 03:27:15;;;;;;;2.03;0.53;;;13.80;99.90;;;;;;5094652;28;20541;-85
2021/05/24 03:29:48;;;;;;;2.20;0.70;;;13.70;99.90;;;;;;5094800;28;20230;-85
2021/05/24 03:32:21;;;;;;;1.33;0.70;;;13.60;99.90;;;;;;5095581;28;20310;-84
2021/05/24 03:35:20;;;;;;;3.30;0.70;;;13.50;99.90;;;;;;5094807;28;20210;-86
2021/05/24 03:37:50;;;;;;;1.97;0.87;;;13.30;99.90;;;;;;5088677;28;20206;-85
2021/05/24 03:40:17;;;;;;;1.13;0.50;;;13.20;99.90;;;;;;5094313;28;20203;-84
2021/05/24 03:42:44;;;;;;;2.60;0.73;;;13.00;99.90;;;;;;5094759;28;20209;-84
2021/05/24 03:45:15;;;;;;;1.90;0.50;;;12.80;99.90;;;;;;5094413;28;20576;-82
2021/05/24 03:47:42;;;;;;;2.43;0.60;;;12.60;99.90;;;;;;5093927;28;20246;-80
2021/05/24 03:50:10;;;;;;;2.43;0.53;;;12.40;99.90;;;;;;5093756;28;20254;-81
2021/05/24 03:52:37;;;;;;;1.00;0.50;;;12.20;99.90;;;;;;5093951;28;20288;-80
2021/05/24 03:55:04;;;;;;;3.03;0.60;;;12.00;99.90;;;;;;5092490;28;20198;-81
2021/05/24 03:57:31;;;;;;;1.43;0.47;;;11.80;99.90;;;;;;5093454;28;20234;-82
2021/05/24 03:59:57;;;;;;;1.80;0.50;;;11.60;99.90;;;;;;5093359;28;20206;-81
2021/05/24 04:02:24;;;;;;;1.43;0.50;;;11.60;99.90;;;;;;5093141;28;20199;-83
2021/05/24 04:04:51;;;;;;;1.87;0.90;;;11.50;99.90;;;;;;5093255;28;20201;-82
2021/05/24 04:07:22;;;;;;;2.00;0.60;;;11.50;99.90;;;;;;5093285;28;20205;-85
2021/05/24 04:09:49;;;;;;;1.30;0.50;;;11.50;99.90;;;;;;5093624;28;20229;-85
2021/05/24 04:12:16;;;;;;;4.20;0.73;;;11.50;99.90;;;;;;5092826;28;20238;-81
2021/05/24 04:14:43;;;;;;;1.63;0.77;;;11.40;99.90;;;;;;5093177;28;20300;-82
2021/05/24 04:17:10;;;;;;;1.80;0.80;;;11.40;99.90;;;;;;5093039;28;20312;-81
2021/05/24 04:19:39;;;;;;;3.60;0.90;;;11.30;99.90;;;;;;5093158;28;20247;-82
2021/05/24 04:22:06;;;;;;;2.00;1.13;;;11.30;99.90;;;;;;5093009;28;20195;-82
2021/05/24 04:24:33;;;;;;;1.83;1.20;;;11.20;99.90;;;;;;5092867;28;20293;-82
2021/05/24 04:26:59;;;;;;;1.40;0.90;;;11.20;99.90;;;;;;5092845;28;20201;-82
2021/05/24 04:29:26;;;;;;;2.90;1.03;;;11.20;99.90;;;;;;5092899;28;20292;-81
2021/05/24 04:31:52;;;;;;;5.20;0.90;;;11.10;99.90;;;;;;5093040;28;20228;-81
2021/05/24 04:34:18;;;;;;;2.60;0.90;;;11.10;99.90;;;;;;5093178;28;20257;-80
2021/05/24 04:36:45;;;;;;;6.20;1.10;;;11.10;99.90;;;;;;5092947;28;20228;-82
2021/05/24 04:39:12;;;;;;;3.17;0.70;;;11.10;99.90;;;;;;5092694;28;20237;-80
2021/05/24 04:41:38;;;;;;;1.90;0.77;;;11.10;99.90;;;;;;5092789;28;20197;-81
2021/05/24 04:44:12;;;;;;;2.47;0.50;;;11.10;99.90;;;;;;5092737;28;20279;-80
2021/05/24 04:46:38;;;;;;;1.70;0.50;;;11.00;99.90;;;;;;5093140;28;20221;-81
2021/05/24 04:49:04;;;;;;;0.80;0.53;;;11.00;99.90;;;;;;5092890;28;20695;-81
2021/05/24 04:51:31;;;;;;;5.03;0.80;;;11.10;99.90;;;;;;5092806;28;20308;-82
2021/05/24 04:53:57;;;;;;;2.50;0.70;;;11.10;99.90;;;;;;5092917;28;20195;-81
2021/05/24 04:56:24;;;;;;;1.30;0.60;;;11.10;99.90;;;;;;5092596;28;20634;-81
2021/05/24 04:58:51;;;;;;;1.53;0.67;;;11.10;99.90;;;;;;5092523;28;20289;-81
2021/05/24 05:01:17;;;;;;;1.33;0.60;;;11.00;99.90;;;;;;5093105;28;20212;-81
2021/05/24 05:03:44;;;;;;;1.43;0.57;;;11.00;99.90;;;;;;5092679;28;20284;-82
2021/05/24 05:06:10;;;;;;;2.00;0.60;;;11.00;99.90;;;;;;5092744;28;20310;-81
2021/05/24 05:08:36;;;;;;;2.00;0.67;;;11.00;99.90;;;;;;5092690;28;20686;-82
2021/05/24 05:11:03;;;;;;;1.60;0.60;;;10.90;99.90;;;;;;5092829;28;20668;-81
2021/05/24 05:13:30;;;;;;;3.47;0.57;;;10.90;99.90;;;;;;5092551;28;20229;-82
2021/05/24 05:15:56;;;;;;;2.33;0.63;;;11.00;99.90;;;;;;5093033;28;20707;-81
2021/05/24 05:18:23;;;;;;;1.50;0.70;;;10.90;99.90;;;;;;5092704;28;20616;-82
2021/05/24 05:20:49;;;;;;;2.00;0.60;;;10.90;99.90;;;;;;5092938;28;20227;-82
2021/05/24 05:23:16;;;;;;;0.67;0.60;;;10.90;99.90;;;;;;5092734;28;20228;-84
2021/05/24 05:25:42;;;;;;;1.43;0.60;;;11.10;99.90;;;;;;5092835;28;20240;-85
2021/05/24 05:28:10;;;;;;;1.60;0.80;;;11.20;99.90;;;;;;5093249;28;20667;-83
2021/05/24 05:30:38;;;;;;;3.10;0.53;;;11.20;99.90;;;;;;5096970;28;20206;-83
2021/05/24 05:33:05;;;;;;;2.43;0.60;;;11.10;99.90;;;;;;5096924;28;20649;-83
2021/05/24 05:35:32;;;;;;;1.87;0.63;;;11.10;99.90;;;;;;5097017;28;20209;-83
2021/05/24 05:38:01;;;;;;;1.87;0.67;;;11.10;99.90;;;;;;5096560;28;20203;-83
2021/05/24 05:40:30;;;;;;;2.43;0.70;;;11.00;99.90;;;;;;5096683;28;20636;-84
2021/05/24 05:42:57;;;;;;;1.87;0.70;;;11.00;99.90;;;;;;5097139;28;20216;-84
2021/05/24 05:45:23;;;;;;;1.67;0.80;;;11.10;99.90;;;;;;5097071;28;20201;-84
2021/05/24 05:47:51;;;;;;;5.60;0.80;;;11.10;99.90;;;;;;5096991;28;20202;-83
2021/05/24 05:50:27;;;;;;;3.07;0.80;;;11.20;99.90;;;;;;5096721;28;20205;-84
2021/05/24 05:52:54;;;;;;;3.37;0.70;;;11.30;99.90;;;;;;5096801;28;20604;-83
2021/05/24 05:55:20;;;;;;;3.73;0.87;;;11.40;99.90;;;;;;5096698;28;20214;-82
2021/05/24 05:57:47;;;;;;;1.30;0.70;;;11.60;99.90;;;;;;5096858;28;20209;-84
2021/05/24 06:00:14;;;;;;;3.47;0.90;;;11.70;99.90;;;;;;5096146;28;20223;-87
2021/05/24 06:02:41;;;;;;;2.63;0.80;;;11.60;99.90;;;;;;5097015;28;20217;-84
2021/05/24 06:05:10;;;;;;;1.50;0.70;;;11.50;99.90;;;;;;5096280;28;20203;-84
2021/05/24 06:07:37;;;;;;;2.00;0.70;;;11.60;99.90;;;;;;5096317;28;20201;-86
2021/05/24 06:10:04;;;;;;;1.47;0.70;;;11.40;99.90;;;;;;5096158;28;20282;-86
2021/05/24 06:12:31;;;;;;;5.43;0.80;;;11.50;99.90;;;;;;5095857;28;20232;-84
2021/05/24 06:15:00;;;;;;;4.10;0.80;;;11.40;99.90;;;;;;5095477;28;20206;-85
2021/05/24 06:17:27;;;;;;;3.43;0.70;;;11.40;99.90;;;;;;5095700;28;20226;-84
2021/05/24 06:19:53;;;;;;;1.10;0.67;;;11.50;99.90;;;;;;5095674;28;20198;-89
2021/05/24 06:22:21;;;;;;;3.70;0.90;;;11.50;99.90;;;;;;5096756;28;20212;-84
2021/05/24 06:24:47;;;;;;;2.50;0.70;;;11.50;99.90;;;;;;5094956;28;20732;-83
2021/05/24 06:27:17;;;;;;;4.10;1.20;;;11.60;99.90;;;;;;5095054;28;20677;-83
2021/05/24 06:29:44;;;;;;;2.57;0.70;;;11.40;99.90;;;;;;5094893;28;20224;-83
2021/05/24 06:32:10;;;;;;;4.90;0.80;;;11.30;99.90;;;;;;5095866;28;20201;-83
2021/05/24 06:34:37;;;;;;;1.83;0.73;;;11.30;99.90;;;;;;5095532;28;20288;-83
2021/05/24 06:37:03;;;;;;;3.07;0.83;;;11.30;99.90;;;;;;5095254;28;20228;-82
2021/05/24 06:39:31;;;;;;;1.63;0.70;;;11.30;99.90;;;;;;5095445;28;20199;-82
2021/05/24 06:41:57;;;;;;;3.87;1.13;;;11.40;99.90;;;;;;5095019;28;20241;-82
2021/05/24 06:44:23;;;;;;;1.33;0.70;;;11.40;99.90;;;;;;5095248;28;20288;-82
2021/05/24 06:46:50;;;;;;;4.60;1.17;;;11.30;99.90;;;;;;5093538;28;20209;-83
2021/05/24 06:49:16;;;;;;;2.83;0.77;;;11.30;99.90;;;;;;5094031;28;20625;-82
2021/05/24 06:51:43;;;;;;;3.43;0.70;;;11.40;99.90;;;;;;5095133;28;20656;-82
2021/05/24 06:54:10;;;;;;;2.30;1.00;;;11.40;99.90;;;;;;5094351;28;20292;-83
2021/05/24 06:56:37;;;;;;;6.50;1.10;;;11.50;99.90;;;;;;5092132;28;20749;-84
2021/05/24 06:59:04;;;;;;;3.70;0.90;;;11.50;99.90;;;;;;5095679;28;20254;-85
2021/05/24 07:01:31;;;;;;;4.03;0.90;;;11.50;99.90;;;;;;5095137;28;20347;-83
2021/05/24 07:03:57;;;;;;;4.03;1.00;;;11.40;99.90;;;;;;5095420;28;20615;-82
2021/05/24 07:06:23;;;;;;;2.23;1.10;;;11.40;99.90;;;;;;5095396;28;20228;-84
2021/05/24 07:08:50;;;;;;;3.30;1.03;;;11.40;99.90;;;;;;5095823;28;20565;-81
2021/05/24 07:11:16;;;;;;;2.10;1.03;;;11.40;99.90;;;;;;5094911;28;20199;-83
2021/05/24 07:13:44;;;;;;;2.03;1.03;;;11.50;99.90;;;;;;5094924;28;20209;-82
2021/05/24 07:16:10;;;;;;;4.93;1.20;;;11.40;99.90;;;;;;5096491;28;20326;-81
2021/05/24 07:18:38;;;;;;;5.40;1.00;;;11.50;99.90;;;;;;5094246;28;20201;-86
2021/05/24 07:21:05;;;;;;;2.50;1.20;;;11.50;99.90;;;;;;5094538;28;20651;-81
2021/05/24 07:23:31;;;;;;;1.63;0.90;;;11.40;99.90;;;;;;5094474;28;20573;-81
2021/05/24 07:25:58;;;;;;;2.83;1.07;;;11.50;99.90;;;;;;5094071;28;20199;-82
2021/05/24 07:28:25;;;;;;;4.07;1.27;;;11.50;99.90;;;;;;5094091;28;20197;-81
2021/05/24 07:30:53;;;;;;;3.37;1.30;;;11.60;99.90;;;;;;5094087;28;20358;-84
2021/05/24 07:33:19;;;;;;;3.83;1.90;;;11.50;99.90;;;;;;5094252;28;20347;-88
2021/05/24 07:35:46;;;;;;;3.03;2.10;;;11.40;99.90;;;;;;5093867;28;20201;-83
2021/05/24 07:38:12;;;;;;;4.23;2.30;;;11.50;99.90;;;;;;5094310;28;20222;-82
2021/05/24 07:40:39;;;;;;;4.53;2.80;;;11.50;99.90;;;;;;5094466;28;20227;-81
2021/05/24 07:43:06;;;;;;;3.80;1.90;;;11.60;99.90;;;;;;5091518;28;20220;-86
2021/05/24 07:45:32;;;;;;;3.37;1.27;;;11.60;99.90;;;;;;5095155;28;20201;-82
2021/05/24 07:48:00;;;;;;;3.53;1.70;;;11.70;99.90;;;;;;5094776;28;20203;-82
2021/05/24 07:50:26;;;;;;;4.23;1.50;;;11.80;99.90;;;;;;5076765;28;20215;-81
2021/05/24 07:52:53;;;;;;;3.00;1.43;;;11.80;99.90;;;;;;5093625;28;20205;-84
2021/05/24 07:55:20;;;;;;;4.20;1.40;;;12.00;99.90;;;;;;5093858;28;20199;-85
2021/05/24 07:57:46;;;;;;;5.40;1.63;;;12.00;99.90;;;;;;5093008;28;20213;-83
2021/05/24 08:00:16;;;;;;;7.03;1.60;;;12.20;99.90;;;;;;5092752;28;20202;-86
2021/05/24 08:02:44;;;;;;;4.10;1.60;;;12.30;99.90;;;;;;5090502;28;20195;-82
2021/05/24 08:05:14;;;;;;;3.10;1.33;;;12.30;99.90;;;;;;5089020;28;20203;-83
2021/05/24 08:07:41;;;;;;;4.03;1.50;;;12.40;99.90;;;;;;5073455;28;20222;-84
2021/05/24 08:10:11;;;;;;;5.37;2.40;;;12.40;99.90;;;;;;5084711;28;20206;-81
2021/05/24 08:12:38;;;;;;;3.00;1.60;;;12.40;99.90;;;;;;5092826;28;20194;-82
2021/05/24 08:15:07;;;;;;;4.00;2.27;;;12.60;99.90;;;;;;5093080;28;20217;-82
2021/05/24 08:17:33;;;;;;;2.80;1.50;;;12.70;99.90;;;;;;5092202;28;20782;-83
2021/05/24 08:19:59;;;;;;;4.60;1.63;;;12.60;99.90;;;;;;5093162;28;20267;-83
2021/05/24 08:22:27;;;;;;;3.47;1.90;;;12.60;99.90;;;;;;5093295;28;20282;-84
2021/05/24 08:24:53;;;;;;;2.90;1.60;;;12.70;99.90;;;;;;5092310;28;20223;-83
2021/05/24 08:27:20;;;;;;;2.53;1.00;;;12.60;99.90;;;;;;5092884;28;20576;-83
2021/05/24 08:29:46;;;;;;;2.87;1.30;;;12.70;99.90;;;;;;5092985;28;20209;-82
2021/05/24 08:32:13;;;;;;;4.60;1.10;;;12.70;99.90;;;;;;5093053;28;20201;-82
2021/05/24 08:34:39;;;;;;;2.00;0.73;;;12.80;99.90;;;;;;5092797;28;20645;-85
2021/05/24 08:37:06;;;;;;;1.83;0.93;;;12.80;99.90;;;;;;5092522;28;20262;-83
2021/05/24 08:39:33;;;;;;;2.80;1.10;;;12.70;99.90;;;;;;5092575;28;20198;-86
2021/05/24 08:42:00;;;;;;;2.23;1.20;;;12.70;99.90;;;;;;5092604;28;20642;-87
2021/05/24 08:44:27;;;;;;;3.40;1.00;;;12.80;99.90;;;;;;5092766;28;20293;-85
2021/05/24 08:46:53;;;;;;;3.50;1.07;;;12.90;99.90;;;;;;5089571;28;20255;-82
2021/05/24 08:49:21;;;;;;;1.37;0.70;;;13.10;99.90;;;;;;5090239;28;20199;-82
2021/05/24 08:51:47;;;;;;;2.67;1.07;;;12.90;99.90;;;;;;5093027;28;20202;-85
2021/05/24 08:54:14;;;;;;;1.20;0.90;;;13.00;99.90;;;;;;5092461;28;20252;-82
2021/05/24 08:56:41;;;;;;;2.40;1.40;;;12.90;99.90;;;;;;5092038;28;20224;-84
2021/05/24 08:59:08;;;;;;;0.87;0.80;;;13.00;99.90;;;;;;5092350;28;20199;-81
2021/05/24 09:01:34;;;;;;;2.53;0.83;;;13.10;99.90;;;;;;5092562;28;20290;-82
2021/05/24 09:04:02;;;;;;;2.63;1.20;;;13.10;99.90;;;;;;5093496;28;20533;-85
2021/05/24 09:06:36;;;;;;;3.87;0.97;;;13.10;99.90;;;;;;5096602;28;20233;-82
2021/05/24 09:09:09;;;;;;;3.63;0.70;;;13.30;99.90;;;;;;5093867;28;20383;-85
2021/05/24 09:11:35;;;;;;;1.87;0.93;;;13.40;99.90;;;;;;5096353;28;20210;-80
2021/05/24 09:14:12;;;;;;;3.10;1.20;;;13.40;99.90;;;;;;5094394;28;20203;-83
2021/05/24 09:16:39;;;;;;;2.57;0.90;;;13.80;99.90;;;;;;5093822;28;20206;-83
2021/05/24 09:19:15;;;;;;;2.57;1.37;;;14.30;99.90;;;;;;5096739;28;20289;-80
2021/05/24 09:21:49;;;;;;;3.57;0.80;;;14.70;99.90;;;;;;5094314;28;20234;-86
2021/05/24 09:24:36;;;;;;;1.40;0.80;;;15.30;99.90;;;;;;5094898;28;20269;-82
2021/05/24 09:27:04;;;;;;;0.83;0.60;;;15.80;99.90;;;;;;5076449;28;20207;-81
2021/05/24 09:29:43;;;;;;;1.57;0.80;;;15.80;99.90;;;;;;5078501;28;20642;-83
2021/05/24 09:32:18;;;;;;;1.43;1.03;;;15.70;99.90;;;;;;5096702;28;20203;-80
2021/05/24 09:34:46;;;;;;;0.70;0.70;;;15.30;99.90;;;;;;5096068;28;20201;-82
2021/05/24 09:37:13;;;;;;;1.70;0.80;;;15.10;99.90;;;;;;5095773;28;20214;-84
2021/05/24 09:39:40;;;;;;;0.97;0.70;;;15.00;99.90;;;;;;5096274;28;20202;-82
2021/05/24 09:42:08;;;;;;;1.57;0.70;;;15.00;99.90;;;;;;5096155;28;20237;-85
2021/05/24 09:44:35;;;;;;;2.10;0.80;;;14.90;99.90;;;;;;5098280;28;20275;-85
2021/05/24 09:47:02;;;;;;;1.50;0.83;;;14.80;99.90;;;;;;5098670;28;20259;-83
2021/05/24 09:49:31;;;;;;;2.37;1.00;;;14.60;99.90;;;;;;5085718;28;20206;-82
2021/05/24 09:51:57;;;;;;;7.70;1.30;;;14.60;99.90;;;;;;5089526;28;20294;-83
2021/05/24 09:54:31;;;;;;;1.50;1.00;;;14.40;99.90;;;;;;5093663;28;20199;-85
2021/05/24 09:56:59;;;;;;;3.33;1.33;;;14.60;99.90;;;;;;5097122;28;20329;-83
2021/05/24 09:59:30;;;;;;;2.13;0.80;;;14.70;99.90;;;;;;5099326;28;20190;-84
2021/05/24 10:01:58;;;;;;;1.20;0.60;;;15.00;99.90;;;;;;5096407;28;20198;-81
2021/05/24 10:04:28;;;;;;;0.87;0.80;;;15.30;99.90;;;;;;5096067;28;20214;-81
2021/05/24 10:06:54;;;;;;;3.23;0.90;;;15.60;99.90;;;;;;5095879;28;20206;-86
2021/05/24 10:09:21;;;;;;;1.43;0.90;;;16.20;99.90;;;;;;5095592;28;20203;-82
2021/05/24 10:11:49;;;;;;;1.80;0.83;;;16.40;99.90;;;;;;5095486;28;20203;-82
2021/05/24 10:14:18;;;;;;;1.73;0.90;;;16.30;99.90;;;;;;5095144;28;20215;-81
2021/05/24 10:16:48;;;;;;;3.33;1.00;;;16.40;99.90;;;;;;5095055;28;20254;-84
2021/05/24 10:19:17;;;;;;;1.90;1.20;;;16.80;99.90;;;;;;5095568;28;20203;-80
2021/05/24 10:21:45;;;;;;;2.37;0.97;;;16.60;99.90;;;;;;5095612;28;20195;-84
2021/05/24 10:24:13;;;;;;;4.17;1.20;;;16.30;99.90;;;;;;5095012;28;20281;-84
2021/05/24 10:26:42;;;;;;;2.03;1.10;;;16.20;99.90;;;;;;5094791;28;20238;-83
2021/05/24 10:29:09;;;;;;;2.10;1.33;;;16.10;99.90;;;;;;5096246;28;20289;-84
2021/05/24 10:31:36;;;;;;;2.57;1.50;;;16.20;99.90;;;;;;5096678;28;20201;-81
2021/05/24 10:34:11;;;;;;;4.83;2.10;;;16.00;99.90;;;;;;5095879;28;20238;-82
2021/05/24 10:36:38;;;;;;;3.40;1.70;;;15.70;99.90;;;;;;5091120;28;20292;-80
2021/05/24 10:39:12;;;;;;;4.37;2.73;;;15.60;99.90;;;;;;5094391;28;20676;-81
2021/05/24 10:41:47;;;;;;;4.87;2.10;;;15.40;99.90;;;;;;5094265;28;20279;-80
2021/05/24 10:44:16;;;;;;;6.90;2.50;;;15.40;99.90;;;;;;5094434;28;20668;-80
2021/05/24 10:46:43;;;;;;;4.90;2.33;;;15.10;99.90;;;;;;5093279;28;20638;-83
2021/05/24 10:49:21;;;;;;;3.50;1.10;;;14.90;99.90;;;;;;5088480;28;20260;-80
2021/05/24 10:51:53;;;;;;;3.93;2.07;;;14.80;99.90;;;;;;5094066;28;20199;-79
2021/05/24 10:54:40;;;;;;;4.53;2.30;;;15.00;99.90;;;;;;5094652;28;20255;-80
2021/05/24 10:57:18;;;;;;;3.83;1.70;;;15.10;99.90;;;;;;5093847;28;20210;-81
2021/05/24 10:59:50;;;;;;;1.20;1.03;;;15.00;99.90;;;;;;5094431;28;20695;-79
2021/05/24 11:02:24;;;;;;;2.27;1.03;;;14.90;99.90;;;;;;5093962;28;20743;-83
2021/05/24 11:04:55;;;;;;;1.47;1.00;;;14.70;99.90;;;;;;5089825;28;20199;-81
2021/05/24 11:07:26;;;;;;;1.37;1.00;;;14.80;99.90;;;;;;5092313;28;20191;-80
2021/05/24 11:09:54;;;;;;;3.40;1.00;;;15.00;99.90;;;;;;5073003;28;20632;-80
2021/05/24 11:12:31;;;;;;;4.17;1.00;;;15.10;99.90;;;;;;5085429;28;20673;-81
2021/05/24 11:15:08;;;;;;;1.43;0.80;;;15.60;99.90;;;;;;5090955;28;20233;-79
2021/05/24 11:18:13;;;;;;;3.83;1.10;;;16.00;99.90;;;;;;5092324;28;20284;-80
2021/05/24 11:20:44;;;;;;;1.57;0.90;;;16.50;99.90;;;;;;5092550;28;20293;-80
2021/05/24 11:23:20;;;;;;;2.60;1.00;;;17.40;99.90;;;;;;5093245;28;20655;-81
2021/05/24 11:25:55;;;;;;;1.20;0.87;;;17.50;99.90;;;;;;5090686;28;20603;-84
2021/05/24 11:28:32;;;;;;;1.57;0.97;;;17.50;99.90;;;;;;5093678;28;20190;-81
2021/05/24 11:31:10;;;;;;;0.83;0.80;;;18.20;99.90;;;;;;5093666;28;20205;-81
2021/05/24 11:33:42;;;;;;;2.63;0.90;;;18.70;99.90;;;;;;5092927;28;20194;-80
2021/05/24 11:36:10;;;;;;;1.43;0.90;;;19.20;99.90;;;;;;5091677;28;20199;-82
2021/05/24 11:38:37;;;;;;;4.07;1.00;;;20.20;99.90;;;;;;5093631;28;20290;-83
2021/05/24 11:41:13;;;;;;;1.00;0.90;;;21.10;99.90;;;;;;5092790;28;20237;-81
2021/05/24 11:43:40;;;;;;;1.07;0.90;;;21.90;99.90;;;;;;5091208;28;20202;-81
2021/05/24 11:46:08;;;;;;;4.73;1.37;;;22.70;99.90;;;;;;5092320;28;20191;-81
2021/05/24 11:48:39;;;;;;;2.47;1.63;;;22.80;99.90;;;;;;5090587;28;20556;-82
2021/05/24 11:51:08;;;;;;;3.83;1.53;;;23.20;99.90;;;;;;5093182;28;20286;-82
2021/05/24 11:53:34;;;;;;;3.30;2.00;;;23.40;99.90;;;;;;5072880;28;20187;-82
2021/05/24 11:56:12;;;;;;;3.83;2.50;;;23.80;99.90;;;;;;5092755;28;20206;-79
2021/05/24 11:58:59;;;;;;;3.45;1.20;;;23.80;99.90;;;;;;5090850;28;20217;-81
2021/05/24 12:01:27;;;;;;;3.40;1.70;;;22.80;99.90;;;;;;5091550;28;20271;-82
2021/05/24 12:03:53;;;;;;;1.93;1.47;;;21.90;99.90;;;;;;5089931;28;20239;-83
2021/05/24 12:06:20;;;;;;;2.57;1.30;;;21.00;99.90;;;;;;5092242;28;20230;-76
2021/05/24 12:08:47;;;;;;;2.20;1.40;;;19.70;99.90;;;;;;5091810;28;20665;-75
2021/05/24 12:11:15;;;;;;;3.57;2.10;;;18.90;99.90;;;;;;5092262;28;20194;-75
2021/05/24 12:14:02;;;;;;;3.20;1.83;;;19.10;99.90;;;;;;5092096;28;20294;-76
2021/05/24 12:16:30;;;;;;;3.63;1.83;;;19.60;99.90;;;;;;5089272;28;20612;-76
2021/05/24 12:18:58;;;;;;;3.00;1.50;;;19.80;99.90;;;;;;5092346;28;20285;-75
2021/05/24 12:21:32;;;;;;;1.87;1.30;;;19.60;99.90;;;;;;5092329;28;20195;-76
2021/05/24 12:23:59;;;;;;;1.43;1.10;;;20.00;99.90;;;;;;5092119;28;20194;-75
2021/05/24 12:26:27;;;;;;;2.60;1.10;;;20.80;99.90;;;;;;5092220;28;20206;-76
2021/05/24 12:28:54;;;;;;;3.13;1.43;;;21.80;99.90;;;;;;5092119;28;20190;-76
2021/05/24 12:31:21;;;;;;;1.70;1.40;;;22.40;99.90;;;;;;5091775;28;20208;-76
2021/05/24 12:33:49;;;;;;;2.73;1.17;;;22.60;99.90;;;;;;5089220;28;20194;-76
2021/05/24 12:36:19;;;;;;;4.20;1.30;;;22.70;99.90;;;;;;5091887;28;20273;-77
2021/05/24 12:38:47;;;;;;;1.35;1.10;;;22.50;99.90;;;;;;5091938;28;20194;-76
2021/05/24 12:41:16;;;;;;;3.35;1.30;;;22.90;99.90;;;;;;5089098;28;20190;-74
2021/05/24 12:43:52;;;;;;;1.92;1.15;;;22.70;99.90;;;;;;5089882;28;20207;-75
2021/05/24 12:46:19;;;;;;;4.00;1.43;;;21.50;99.90;;;;;;5088411;28;20198;-75
2021/05/24 12:48:51;;;;;;;2.23;1.40;;;20.80;99.90;;;;;;5079794;28;20215;-75
2021/05/24 12:51:20;;;;;;;3.27;1.63;;;20.10;99.90;;;;;;5082857;28;20270;-75
2021/05/24 12:53:56;;;;;;;1.47;1.20;;;19.50;99.90;;;;;;5085554;28;20539;-75
2021/05/24 12:56:23;;;;;;;3.00;1.30;;;19.40;99.90;;;;;;5088689;28;20547;-77